createdAt,value
2022-12-25T00:02:23.472Z,99473.47
2022-12-25T00:04:51.036Z,99483.03
2022-12-25T00:07:18.220Z,99484.75
2022-12-25T00:09:45.589Z,99490.72
2022-12-25T00:12:13.195Z,99483.88
2022-12-25T00:14:40.393Z,99484.66
2022-12-25T00:17:07.628Z,99494.22
2022-12-25T00:19:35.099Z,99496.94
2022-12-25T00:22:02.293Z,99499.56
2022-12-25T00:24:29.524Z,99498.66
2022-12-25T00:26:57.132Z,99499.56
2022-12-25T00:29:24.325Z,99506.50
2022-12-25T00:31:52.721Z,99519.59
2022-12-25T00:34:20.263Z,99522.19
2022-12-25T00:36:49.964Z,99524.78
2022-12-25T00:39:17.123Z,99522.19
2022-12-25T00:42:03.434Z,99521.28
2022-12-25T00:44:30.596Z,99527.38
2022-12-25T00:46:58.065Z,99529.16
2022-12-25T00:49:25.447Z,99543.06
2022-12-25T00:51:52.823Z,99550.91
2022-12-25T00:54:20.281Z,99550.03
2022-12-25T00:56:47.439Z,99550.94
2022-12-25T00:59:14.604Z,99552.66
2022-12-25T01:01:42.234Z,99545.69
2022-12-25T01:04:12.247Z,99536.13
2022-12-25T01:06:39.780Z,99541.34
2022-12-25T01:09:26.059Z,99534.41
2022-12-25T01:11:53.257Z,99544.81
2022-12-25T01:14:20.706Z,99549.19
2022-12-25T01:16:47.947Z,99546.56
2022-12-25T01:19:15.947Z,99550.94
2022-12-25T01:21:43.421Z,99545.66
2022-12-25T01:24:10.579Z,99556.16
2022-12-25T01:26:37.883Z,99550.06
2022-12-25T01:29:06.114Z,99543.09
2022-12-25T01:31:33.370Z,99543.97
2022-12-25T01:34:00.594Z,99532.62
2022-12-25T01:36:28.076Z,99539.59
2022-12-25T01:38:55.279Z,99552.66
2022-12-25T01:41:23.299Z,99557.00
2022-12-25T01:43:59.628Z,99557.91
2022-12-25T01:46:26.818Z,99566.59
2022-12-25T01:48:54.471Z,99558.72
2022-12-25T01:51:23.108Z,99567.37
2022-12-25T01:53:50.453Z,99569.09
2022-12-25T01:56:17.891Z,99562.22
2022-12-25T01:58:45.155Z,99561.38
2022-12-25T02:01:12.631Z,99569.19
2022-12-25T02:03:42.480Z,99562.25
2022-12-25T02:06:10.029Z,99570.94
2022-12-25T02:08:37.264Z,99567.47
2022-12-25T02:11:04.784Z,99570.06
2022-12-25T02:13:31.963Z,99563.03
2022-12-25T02:16:28.779Z,99557.88
2022-12-25T02:19:00.847Z,99559.63
2022-12-25T02:21:27.969Z,99569.19
2022-12-25T02:24:14.315Z,99563.06
2022-12-25T02:26:41.521Z,99560.47
2022-12-25T02:29:17.868Z,99564.78
2022-12-25T02:31:47.304Z,99557.72
2022-12-25T02:34:14.769Z,99553.50
2022-12-25T02:36:44.700Z,99565.72
2022-12-25T02:39:33.209Z,99567.44
2022-12-25T02:42:01.605Z,99567.47
2022-12-25T02:44:47.488Z,99569.22
2022-12-25T02:47:33.778Z,99570.09
2022-12-25T02:50:20.926Z,99576.97
2022-12-25T02:53:07.149Z,99578.78
2022-12-25T02:55:54.725Z,99579.63
2022-12-25T02:58:40.908Z,99586.59
2022-12-25T03:01:37.260Z,99584.81
2022-12-25T03:04:30.525Z,99582.19
2022-12-25T03:07:03.850Z,99586.56
2022-12-25T03:09:52.762Z,99590.88
2022-12-25T03:12:39.196Z,99596.09
2022-12-25T03:15:26.083Z,99613.53
2022-12-25T03:17:53.293Z,99620.53
2022-12-25T03:20:39.419Z,99610.91
2022-12-25T03:23:25.439Z,99611.84
2022-12-25T03:26:11.831Z,99610.78
2022-12-25T03:28:39.005Z,99610.06
2022-12-25T03:31:18.438Z,99617.03
2022-12-25T03:34:13.648Z,99620.53
2022-12-25T03:37:04.090Z,99623.16
2022-12-25T03:39:49.530Z,99630.09
2022-12-25T03:42:37.070Z,99631.84
2022-12-25T03:45:28.213Z,99637.91
2022-12-25T03:48:28.300Z,99648.31
2022-12-25T03:51:19.138Z,99654.44
2022-12-25T03:54:06.874Z,99641.38
2022-12-25T03:56:52.773Z,99652.72
2022-12-25T03:59:39.566Z,99654.38
2022-12-25T04:02:25.563Z,99643.13
2022-12-25T04:05:11.850Z,99638.84
2022-12-25T04:07:57.450Z,99641.41
2022-12-25T04:10:43.476Z,99643.13
2022-12-25T04:13:29.358Z,99642.28
2022-12-25T04:16:15.709Z,99638.78
2022-12-25T04:19:01.536Z,99632.72
2022-12-25T04:21:47.752Z,99631.03
2022-12-25T04:24:33.637Z,99634.50
2022-12-25T04:27:20.063Z,99625.78
2022-12-25T04:30:05.659Z,99648.47
2022-12-25T04:32:51.569Z,99642.34
2022-12-25T04:35:37.392Z,99646.66
2022-12-25T04:38:04.839Z,99634.50
2022-12-25T04:40:31.995Z,99642.28
2022-12-25T04:42:59.185Z,99638.84
2022-12-25T04:45:26.633Z,99631.91
2022-12-25T04:47:53.802Z,99625.78
2022-12-25T04:50:20.934Z,99626.63
2022-12-25T04:52:48.436Z,99638.00
2022-12-25T04:55:15.632Z,99637.13
2022-12-25T04:57:42.803Z,99643.19
2022-12-25T05:00:10.541Z,99638.81
2022-12-25T05:02:37.808Z,99641.44
2022-12-25T05:05:05.245Z,99644.03
2022-12-25T05:07:32.895Z,99643.16
2022-12-25T05:10:00.084Z,99639.66
2022-12-25T05:12:27.281Z,99633.59
2022-12-25T05:14:54.730Z,99633.56
2022-12-25T05:17:21.919Z,99632.72
2022-12-25T05:19:49.077Z,99638.84
2022-12-25T05:22:16.528Z,99641.31
2022-12-25T05:24:43.700Z,99659.66
2022-12-25T05:27:10.862Z,99643.09
2022-12-25T05:29:38.310Z,99640.53
2022-12-25T05:32:05.509Z,99653.47
2022-12-25T05:34:32.772Z,99642.16
2022-12-25T05:37:00.224Z,99649.22
2022-12-25T05:39:27.472Z,99650.00
2022-12-25T05:41:54.629Z,99647.47
2022-12-25T05:44:22.088Z,99648.38
2022-12-25T05:46:49.332Z,99655.31
2022-12-25T05:49:16.595Z,99664.00
2022-12-25T05:51:44.074Z,99663.97
2022-12-25T05:54:11.274Z,99663.16
2022-12-25T05:56:38.643Z,99664.00
2022-12-25T05:59:06.135Z,99660.50
2022-12-25T06:01:33.381Z,99662.25
2022-12-25T06:04:00.970Z,99674.25
2022-12-25T06:06:28.385Z,99666.59
2022-12-25T06:08:56.022Z,99672.44
2022-12-25T06:11:23.530Z,99661.34
2022-12-25T06:13:51.753Z,99663.97
2022-12-25T06:16:19.059Z,99664.75
2022-12-25T06:18:47.493Z,99653.50
2022-12-25T06:21:15.014Z,99650.09
2022-12-25T06:23:43.350Z,99649.22
2022-12-25T06:26:11.964Z,99655.28
2022-12-25T06:28:39.161Z,99657.91
2022-12-25T06:31:11.014Z,99657.00
2022-12-25T06:33:39.058Z,99659.53
2022-12-25T06:36:07.446Z,99653.53
2022-12-25T06:38:35.192Z,99671.59
2022-12-25T06:41:03.832Z,99674.22
2022-12-25T06:43:30.987Z,99683.84
2022-12-25T06:46:01.891Z,99689.91
2022-12-25T06:48:29.359Z,99698.47
2022-12-25T06:50:59.078Z,99700.38
2022-12-25T06:53:26.312Z,99683.94
2022-12-25T06:55:53.752Z,99699.59
2022-12-25T06:58:20.983Z,99702.97
2022-12-25T07:00:48.245Z,99707.03
2022-12-25T07:03:16.234Z,99710.66
2022-12-25T07:05:44.924Z,99707.97
2022-12-25T07:08:12.124Z,99709.59
2022-12-25T07:10:39.660Z,99722.69
2022-12-25T07:13:06.849Z,99720.13
2022-12-25T07:15:33.996Z,99716.88
2022-12-25T07:18:01.824Z,99736.69
2022-12-25T07:20:30.076Z,99734.16
2022-12-25T07:22:57.245Z,99742.84
2022-12-25T07:25:24.687Z,99746.34
2022-12-25T07:27:51.855Z,99748.19
2022-12-25T07:30:19.109Z,99751.44
2022-12-25T07:32:50.134Z,99752.09
2022-12-25T07:35:17.556Z,99761.22
2022-12-25T07:37:44.732Z,99763.44
2022-12-25T07:40:12.805Z,99774.88
2022-12-25T07:42:39.996Z,99768.78
2022-12-25T07:45:07.393Z,99776.06
2022-12-25T07:47:34.829Z,99781.28
2022-12-25T07:50:02.032Z,99799.59
2022-12-25T07:52:29.217Z,99798.78
2022-12-25T07:54:56.729Z,99808.41
2022-12-25T07:57:23.887Z,99810.94
2022-12-25T07:59:51.068Z,99808.28
2022-12-25T08:02:18.749Z,99814.38
2022-12-25T08:04:46.274Z,99815.94
2022-12-25T08:07:14.084Z,99811.63
2022-12-25T08:09:41.266Z,99814.19
2022-12-25T08:12:08.730Z,99815.88
2022-12-25T08:14:35.904Z,99816.34
2022-12-25T08:17:03.107Z,99821.59
2022-12-25T08:19:30.641Z,99823.09
2022-12-25T08:21:57.815Z,99824.97
2022-12-25T08:24:25.016Z,99832.72
2022-12-25T08:26:52.465Z,99828.66
2022-12-25T08:29:19.636Z,99830.47
2022-12-25T08:31:47.022Z,99830.41
2022-12-25T08:34:15.042Z,99834.81
2022-12-25T08:36:42.278Z,99834.84
2022-12-25T08:39:09.444Z,99832.38
2022-12-25T08:41:37.003Z,99828.84
2022-12-25T08:44:04.774Z,99829.50
2022-12-25T08:46:32.021Z,99828.75
2022-12-25T08:48:59.513Z,99836.84
2022-12-25T08:51:26.714Z,99840.34
2022-12-25T08:53:55.911Z,99842.28
2022-12-25T08:56:30.763Z,99840.72
2022-12-25T08:58:58.144Z,99839.66
2022-12-25T09:01:25.883Z,99847.31
2022-12-25T09:03:53.146Z,99849.16
2022-12-25T09:06:20.415Z,99847.41
2022-12-25T09:08:49.648Z,99848.37
2022-12-25T09:11:18.456Z,99844.81
2022-12-25T09:13:45.944Z,99846.53
2022-12-25T09:16:15.027Z,99846.69
2022-12-25T09:18:42.287Z,99840.63
2022-12-25T09:21:10.476Z,99850.06
2022-12-25T09:23:37.929Z,99844.78
2022-12-25T09:26:05.894Z,99844.69
2022-12-25T09:28:33.136Z,99843.41
2022-12-25T09:31:00.774Z,99834.34
2022-12-25T09:33:28.045Z,99835.19
2022-12-25T09:35:55.980Z,99839.03
2022-12-25T09:38:23.485Z,99838.94
2022-12-25T09:41:09.152Z,99837.28
2022-12-25T09:43:41.427Z,99838.22
2022-12-25T09:46:09.163Z,99835.69
2022-12-25T09:48:36.673Z,99846.97
2022-12-25T09:51:09.220Z,99853.88
2022-12-25T09:53:40.699Z,99849.50
2022-12-25T09:56:12.913Z,99846.88
2022-12-25T09:58:41.419Z,99852.62
2022-12-25T10:01:16.153Z,99855.47
2022-12-25T10:03:49.877Z,99859.19
2022-12-25T10:06:17.248Z,99852.19
2022-12-25T10:09:01.229Z,99846.19
2022-12-25T10:11:54.960Z,99853.78
2022-12-25T10:14:25.258Z,99839.25
2022-12-25T10:17:04.737Z,99826.34
2022-12-25T10:19:34.311Z,99821.09
2022-12-25T10:22:02.558Z,99825.47
2022-12-25T10:24:37.074Z,99827.19
2022-12-25T10:27:07.400Z,99821.09
2022-12-25T10:29:34.947Z,99823.72
2022-12-25T10:32:02.114Z,99813.25
2022-12-25T10:34:29.534Z,99812.38
2022-12-25T10:36:56.723Z,99818.47
2022-12-25T10:39:24.922Z,99817.63
2022-12-25T10:42:08.857Z,99816.75
2022-12-25T10:44:36.406Z,99825.47
2022-12-25T10:47:04.164Z,99813.22
2022-12-25T10:49:32.412Z,99808.00
2022-12-25T10:51:59.687Z,99811.50
2022-12-25T10:54:27.156Z,99812.34
2022-12-25T10:57:01.590Z,99813.25
2022-12-25T10:59:30.066Z,99811.37
2022-12-25T11:02:03.522Z,99809.69
2022-12-25T11:04:33.285Z,99808.84
2022-12-25T11:07:02.031Z,99802.78
2022-12-25T11:09:29.214Z,99797.50
2022-12-25T11:11:56.799Z,99794.00
2022-12-25T11:14:24.021Z,99786.97
2022-12-25T11:16:51.244Z,99792.16
2022-12-25T11:19:28.970Z,99789.44
2022-12-25T11:22:00.233Z,99787.78
2022-12-25T11:24:29.016Z,99781.66
2022-12-25T11:26:57.449Z,99783.50
2022-12-25T11:29:24.665Z,99769.41
2022-12-25T11:31:52.491Z,99771.09
2022-12-25T11:34:32.845Z,99780.75
2022-12-25T11:37:00.345Z,99779.91
2022-12-25T11:39:32.032Z,99772.03
2022-12-25T11:42:07.126Z,99776.41
2022-12-25T11:44:39.012Z,99778.06
2022-12-25T11:47:12.854Z,99778.31
2022-12-25T11:49:49.715Z,99778.31
2022-12-25T11:52:17.826Z,99786.97
2022-12-25T11:54:48.041Z,99783.56
2022-12-25T11:57:15.330Z,99774.00
2022-12-25T11:59:50.716Z,99772.22
2022-12-25T12:02:26.109Z,99773.09
2022-12-25T12:04:57.477Z,99779.13
2022-12-25T12:07:25.984Z,99772.97
2022-12-25T12:10:12.255Z,99763.22
2022-12-25T12:12:48.321Z,99776.50
2022-12-25T12:15:19.615Z,99762.56
2022-12-25T12:17:46.794Z,99763.34
2022-12-25T12:20:23.411Z,99771.25
2022-12-25T12:22:51.329Z,99774.75
2022-12-25T12:25:18.688Z,99767.47
2022-12-25T12:27:45.863Z,99774.53
2022-12-25T12:30:27.185Z,99772.84
2022-12-25T12:32:59.884Z,99782.28
2022-12-25T12:35:27.411Z,99772.69
2022-12-25T12:37:58.518Z,99777.28
2022-12-25T12:40:37.856Z,99765.66
2022-12-25T12:43:05.525Z,99768.25
2022-12-25T12:45:34.142Z,99768.59
2022-12-25T12:48:01.464Z,99770.00
2022-12-25T12:50:36.362Z,99770.84
2022-12-25T12:53:21.893Z,99776.12
2022-12-25T12:55:49.713Z,99777.09
2022-12-25T12:58:35.618Z,99777.91
2022-12-25T13:01:22.214Z,99783.91
2022-12-25T13:04:18.995Z,99788.09
2022-12-25T13:06:47.839Z,99794.81
2022-12-25T13:09:14.994Z,99790.97
2022-12-25T13:11:42.621Z,99793.44
2022-12-25T13:14:18.133Z,99794.97
2022-12-25T13:16:45.887Z,99790.44
2022-12-25T13:19:18.538Z,99783.31
2022-12-25T13:21:51.566Z,99782.44
2022-12-25T13:24:20.786Z,99783.44
2022-12-25T13:26:48.078Z,99776.19
2022-12-25T13:29:33.459Z,99779.41
2022-12-25T13:32:01.573Z,99779.91
2022-12-25T13:34:32.925Z,99781.75
2022-12-25T13:37:00.927Z,99783.28
2022-12-25T13:39:28.137Z,99793.31
2022-12-25T13:42:10.059Z,99788.97
2022-12-25T13:44:37.529Z,99787.13
2022-12-25T13:47:24.448Z,99785.69
2022-12-25T13:49:53.011Z,99797.75
2022-12-25T13:52:21.593Z,99789.75
2022-12-25T13:54:57.051Z,99797.66
2022-12-25T13:57:25.778Z,99797.03
2022-12-25T13:59:52.994Z,99787.34
2022-12-25T14:02:20.815Z,99787.63
2022-12-25T14:04:48.425Z,99793.63
2022-12-25T14:07:16.243Z,99787.72
2022-12-25T14:09:43.401Z,99784.19
2022-12-25T14:12:15.747Z,99796.41
2022-12-25T14:14:46.195Z,99793.84
2022-12-25T14:17:13.724Z,99794.59
2022-12-25T14:19:41.059Z,99788.59
2022-12-25T14:22:11.596Z,99791.09
2022-12-25T14:24:39.633Z,99792.94
2022-12-25T14:27:07.603Z,99790.25
2022-12-25T14:29:36.654Z,99799.22
2022-12-25T14:32:05.199Z,99807.91
2022-12-25T14:34:32.369Z,99795.59
2022-12-25T14:36:59.608Z,99799.94
2022-12-25T14:39:35.693Z,99809.63
2022-12-25T14:42:12.368Z,99800.00
2022-12-25T14:44:40.287Z,99812.25
2022-12-25T14:47:10.517Z,99814.75
2022-12-25T14:49:38.118Z,99811.31
2022-12-25T14:52:24.226Z,99811.25
2022-12-25T14:54:54.143Z,99806.06
2022-12-25T14:57:28.949Z,99795.66
2022-12-25T14:59:56.911Z,99799.12
2022-12-25T15:02:24.492Z,99804.31
2022-12-25T15:04:51.757Z,99807.94
2022-12-25T15:07:25.144Z,99807.97
2022-12-25T15:10:10.486Z,99805.38
2022-12-25T15:12:39.707Z,99807.12
2022-12-25T15:15:07.360Z,99818.47
2022-12-25T15:17:34.512Z,99819.31
2022-12-25T15:20:01.750Z,99821.97
2022-12-25T15:22:47.609Z,99804.47
2022-12-25T15:25:17.846Z,99804.47
2022-12-25T15:27:45.308Z,99800.16
2022-12-25T15:30:12.859Z,99806.28
2022-12-25T15:32:40.072Z,99808.00
2022-12-25T15:35:07.868Z,99809.75
2022-12-25T15:37:35.027Z,99803.66
2022-12-25T15:40:02.517Z,99806.25
2022-12-25T15:42:30.872Z,99808.88
2022-12-25T15:44:58.087Z,99821.09
2022-12-25T15:47:25.963Z,99819.34
2022-12-25T15:49:53.453Z,99820.19
2022-12-25T15:52:20.610Z,99825.41
2022-12-25T15:54:47.905Z,99810.59
2022-12-25T15:57:20.485Z,99810.63
2022-12-25T15:59:49.775Z,99808.03
2022-12-25T16:02:18.572Z,99815.00
2022-12-25T16:04:46.296Z,99810.63
2022-12-25T16:07:14.265Z,99818.47
2022-12-25T16:09:41.479Z,99813.25
2022-12-25T16:12:08.941Z,99810.63
2022-12-25T16:14:36.154Z,99802.75
2022-12-25T16:17:03.749Z,99813.25
2022-12-25T16:19:31.469Z,99805.41
2022-12-25T16:21:58.705Z,99807.12
2022-12-25T16:24:25.894Z,99801.91
2022-12-25T16:26:53.361Z,99798.44
2022-12-25T16:29:20.523Z,99802.78
2022-12-25T16:31:47.780Z,99801.03
2022-12-25T16:34:15.226Z,99795.81
2022-12-25T16:36:42.411Z,99795.78
2022-12-25T16:39:09.574Z,99789.69
2022-12-25T16:41:37.031Z,99787.06
2022-12-25T16:44:09.228Z,99792.31
2022-12-25T16:46:37.500Z,99784.47
2022-12-25T16:49:04.950Z,99785.34
2022-12-25T16:51:32.123Z,99780.97
2022-12-25T16:53:59.637Z,99786.22
2022-12-25T16:56:28.531Z,99781.88
2022-12-25T16:58:56.617Z,99783.59
2022-12-25T17:01:24.385Z,99780.13
2022-12-25T17:03:51.957Z,99780.09
2022-12-25T17:06:20.739Z,99780.09
2022-12-25T17:08:48.636Z,99780.97
2022-12-25T17:11:19.137Z,99783.62
2022-12-25T17:13:47.120Z,99779.25
2022-12-25T17:16:15.344Z,99780.97
2022-12-25T17:18:42.791Z,99783.62
2022-12-25T17:21:10.329Z,99783.59
2022-12-25T17:23:38.341Z,99782.72
2022-12-25T17:26:05.879Z,99787.00
2022-12-25T17:28:36.074Z,99779.25
2022-12-25T17:31:04.390Z,99789.69
2022-12-25T17:33:31.658Z,99780.13
2022-12-25T17:36:05.902Z,99768.78
2022-12-25T17:38:33.715Z,99760.94
2022-12-25T17:41:01.566Z,99756.44
2022-12-25T17:43:28.862Z,99754.72
2022-12-25T17:45:56.341Z,99750.47
2022-12-25T17:48:23.528Z,99759.16
2022-12-25T17:50:51.417Z,99768.44
2022-12-25T17:53:18.848Z,99757.44
2022-12-25T17:55:46.027Z,99765.06
2022-12-25T17:58:13.241Z,99766.09
2022-12-25T18:00:40.720Z,99759.13
2022-12-25T18:03:11.451Z,99761.78
2022-12-25T18:05:39.320Z,99757.34
2022-12-25T18:08:06.499Z,99754.78
2022-12-25T18:10:37.623Z,99754.72
2022-12-25T18:13:04.835Z,99753.84
2022-12-25T18:15:31.991Z,99761.59
2022-12-25T18:17:59.665Z,99759.00
2022-12-25T18:20:28.067Z,99755.50
2022-12-25T18:22:55.346Z,99758.13
2022-12-25T18:25:22.877Z,99756.28
2022-12-25T18:27:51.619Z,99746.78
2022-12-25T18:30:20.317Z,99738.94
2022-12-25T18:32:47.841Z,99742.28
2022-12-25T18:35:15.061Z,99751.00
2022-12-25T18:37:42.949Z,99746.88
2022-12-25T18:40:10.627Z,99751.13
2022-12-25T18:42:41.072Z,99752.06
2022-12-25T18:45:10.108Z,99745.16
2022-12-25T18:47:38.802Z,99755.53
2022-12-25T18:50:06.521Z,99738.94
2022-12-25T18:52:48.459Z,99731.19
2022-12-25T18:55:18.887Z,99747.22
2022-12-25T18:57:46.186Z,99738.69
2022-12-25T19:00:13.497Z,99740.63
2022-12-25T19:02:42.244Z,99745.34
2022-12-25T19:05:09.668Z,99740.53
2022-12-25T19:07:37.170Z,99741.66
2022-12-25T19:10:05.287Z,99730.94
2022-12-25T19:12:33.174Z,99727.50
2022-12-25T19:15:00.685Z,99731.00
2022-12-25T19:17:31.855Z,99725.31
2022-12-25T19:19:59.510Z,99720.47
2022-12-25T19:22:26.775Z,99718.81
2022-12-25T19:24:54.315Z,99738.84
2022-12-25T19:27:21.498Z,99734.13
2022-12-25T19:29:48.778Z,99732.88
2022-12-25T19:32:16.357Z,99728.47
2022-12-25T19:34:43.887Z,99731.22
2022-12-25T19:37:11.290Z,99739.12
2022-12-25T19:39:39.869Z,99738.12
2022-12-25T19:42:07.113Z,99745.97
2022-12-25T19:44:34.964Z,99736.00
2022-12-25T19:47:02.691Z,99734.50
2022-12-25T19:49:31.373Z,99728.69
2022-12-25T19:51:58.677Z,99719.09
2022-12-25T19:54:26.400Z,99717.28
2022-12-25T19:56:53.816Z,99715.50
2022-12-25T19:59:21.182Z,99712.09
2022-12-25T20:01:48.925Z,99718.97
2022-12-25T20:04:18.262Z,99710.19
2022-12-25T20:06:46.110Z,99695.47
2022-12-25T20:09:14.507Z,99691.69
2022-12-25T20:11:43.161Z,99677.19
2022-12-25T20:14:11.653Z,99684.16
2022-12-25T20:16:39.524Z,99684.88
2022-12-25T20:19:07.471Z,99695.41
2022-12-25T20:21:34.982Z,99696.97
2022-12-25T20:24:02.192Z,99706.50
2022-12-25T20:26:30.747Z,99707.97
2022-12-25T20:28:58.533Z,99698.59
2022-12-25T20:31:32.158Z,99689.44
2022-12-25T20:34:01.178Z,99689.75
2022-12-25T20:36:34.618Z,99694.50
2022-12-25T20:39:05.420Z,99682.25
2022-12-25T20:41:32.825Z,99682.03
2022-12-25T20:44:03.541Z,99678.03
2022-12-25T20:46:31.566Z,99674.34
2022-12-25T20:48:58.869Z,99680.06
2022-12-25T20:51:26.284Z,99679.84
2022-12-25T20:53:54.239Z,99672.53
2022-12-25T20:56:22.688Z,99668.69
2022-12-25T20:58:57.108Z,99686.16
2022-12-25T21:01:24.829Z,99693.97
2022-12-25T21:03:52.720Z,99686.19
2022-12-25T21:06:20.192Z,99689.28
2022-12-25T21:08:47.681Z,99687.53
2022-12-25T21:11:15.688Z,99689.31
2022-12-25T21:13:43.319Z,99674.72
2022-12-25T21:16:12.358Z,99668.19
2022-12-25T21:18:40.063Z,99671.97
2022-12-25T21:21:07.802Z,99666.53
2022-12-25T21:23:35.949Z,99679.47
2022-12-25T21:26:13.088Z,99672.41
2022-12-25T21:28:40.624Z,99660.19
2022-12-25T21:31:10.205Z,99657.97
2022-12-25T21:33:53.042Z,99674.13
2022-12-25T21:36:22.211Z,99668.06
2022-12-25T21:38:56.668Z,99656.13
2022-12-25T21:41:24.319Z,99661.44
2022-12-25T21:43:52.403Z,99646.66
2022-12-25T21:46:19.816Z,99651.94
2022-12-25T21:48:47.592Z,99640.59
2022-12-25T21:51:35.135Z,99648.53
2022-12-25T21:54:02.832Z,99651.53
2022-12-25T21:56:39.770Z,99654.78
2022-12-25T21:59:11.863Z,99659.50
2022-12-25T22:01:39.186Z,99671.84
2022-12-25T22:04:07.668Z,99668.47
2022-12-25T22:06:53.995Z,99677.12
2022-12-25T22:09:21.681Z,99675.44
2022-12-25T22:12:08.505Z,99674.63
2022-12-25T22:14:54.854Z,99677.19
2022-12-25T22:17:45.084Z,99670.94
2022-12-25T22:20:18.087Z,99674.63
2022-12-25T22:22:45.365Z,99674.63
2022-12-25T22:25:13.288Z,99669.34
2022-12-25T22:27:40.856Z,99662.28
2022-12-25T22:30:09.776Z,99655.44
2022-12-25T22:32:37.360Z,99659.59
2022-12-25T22:35:04.811Z,99653.69
2022-12-25T22:37:32.089Z,99652.81
2022-12-25T22:40:01.297Z,99646.69
2022-12-25T22:42:28.758Z,99656.19
2022-12-25T22:44:55.955Z,99663.22
2022-12-25T22:47:24.112Z,99671.09
2022-12-25T22:49:51.259Z,99665.66
2022-12-25T22:52:18.484Z,99672.13
2022-12-25T22:54:45.924Z,99661.91
2022-12-25T22:57:13.161Z,99657.75
2022-12-25T22:59:40.386Z,99650.16
2022-12-25T23:02:08.203Z,99651.63
2022-12-25T23:04:35.602Z,99644.13
2022-12-25T23:07:02.829Z,99638.59
2022-12-25T23:09:30.460Z,99641.56
2022-12-25T23:11:58.236Z,99650.13
2022-12-25T23:14:40.917Z,99659.22
2022-12-25T23:17:30.803Z,99659.31
2022-12-25T23:20:17.486Z,99650.87
2022-12-25T23:23:03.753Z,99655.56
2022-12-25T23:25:49.716Z,99650.72
2022-12-25T23:28:40.216Z,99654.50
2022-12-25T23:31:09.476Z,99650.28
2022-12-25T23:33:37.016Z,99649.19
2022-12-25T23:36:04.307Z,99660.16
2022-12-25T23:38:31.830Z,99650.94
2022-12-25T23:41:01.963Z,99634.44
2022-12-25T23:43:29.180Z,99636.09
2022-12-25T23:45:56.422Z,99632.75
2022-12-25T23:48:23.853Z,99626.63
2022-12-25T23:50:51.008Z,99628.28
2022-12-25T23:53:18.177Z,99637.59
2022-12-25T23:55:50.069Z,99623.12
2022-12-25T23:58:20.670Z,99619.69
